Time;durP1;ratioP1;P1;durP2;ratioP2;P2;SDS_P1;SDS_P2;PMS_P1;PMS_P2;Temp;Humidity;BMP_temperature;BMP_pressure;BME280_temperature;BME280_humidity;BME280_pressure;Samples;Min_cycle;Max_cycle;Signal;HPM_P1;HPM_P2
2022/08/07 00:00:21;;;;;;;5.40;3.80;;;;;;;23.39;100.00;99557.72;5000300;28;20034;-82
2022/08/07 00:02:47;;;;;;;3.97;3.58;;;;;;;23.24;100.00;99561.66;5006369;28;20084;-79
2022/08/07 00:05:12;;;;;;;4.45;2.80;;;;;;;23.16;100.00;99607.69;5003563;28;20045;-82
2022/08/07 00:07:38;;;;;;;3.90;3.25;;;;;;;23.14;100.00;99647.50;5002498;28;20031;-82
2022/08/07 00:10:04;;;;;;;7.22;3.90;;;;;;;23.20;100.00;99738.13;5003960;28;20057;-81
2022/08/07 00:12:30;;;;;;;8.35;3.88;;;;;;;23.15;100.00;99781.00;5002536;28;20030;-81
2022/08/07 00:14:57;;;;;;;6.47;3.83;;;;;;;23.07;100.00;99792.06;5006304;28;20030;-82
2022/08/07 00:17:23;;;;;;;7.13;3.80;;;;;;;23.00;100.00;99810.13;5003044;28;20057;-82
2022/08/07 00:19:49;;;;;;;7.60;3.47;;;;;;;22.84;100.00;99818.72;5007320;28;20383;-82
2022/08/07 00:22:15;;;;;;;5.03;3.53;;;;;;;22.42;100.00;99831.69;5009691;28;20541;-86
2022/08/07 00:24:41;;;;;;;4.22;3.67;;;;;;;22.32;100.00;99846.63;5008522;28;20034;-86
2022/08/07 00:27:07;;;;;;;6.38;4.22;;;;;;;22.17;100.00;99881.81;5008294;28;20042;-82
2022/08/07 00:29:32;;;;;;;11.20;4.20;;;;;;;22.01;100.00;99887.63;5008741;28;20039;-87
2022/08/07 00:31:59;;;;;;;18.85;5.32;;;;;;;21.87;100.00;99885.94;5008648;28;20033;-82
2022/08/07 00:34:29;;;;;;;4.80;4.35;;;;;;;21.72;100.00;99910.34;5013164;28;20030;-83
2022/08/07 00:36:55;;;;;;;20.52;5.25;;;;;;;21.60;100.00;99907.44;5002870;28;20042;-86
2022/08/07 00:39:20;;;;;;;4.80;4.07;;;;;;;21.54;100.00;99916.31;5004158;28;20036;-86
2022/08/07 00:41:56;;;;;;;8.23;4.53;;;;;;;21.47;100.00;99912.78;5010939;28;20057;-85
2022/08/07 00:44:23;;;;;;;6.20;5.22;;;;;;;21.44;100.00;99894.41;5010591;28;20097;-87
2022/08/07 00:46:50;;;;;;;5.80;4.75;;;;;;;21.47;100.00;99859.09;5009271;28;20038;-89
2022/08/07 00:49:18;;;;;;;5.50;4.63;;;;;;;21.52;100.00;99797.53;5017604;28;20098;-91
2022/08/07 00:51:46;;;;;;;5.65;4.82;;;;;;;21.58;100.00;99750.25;5021058;28;20057;-89
2022/08/07 00:54:13;;;;;;;9.32;5.18;;;;;;;21.58;100.00;99718.84;5001394;28;20044;-87
2022/08/07 00:56:40;;;;;;;7.15;4.85;;;;;;;21.56;100.00;99723.59;5013465;28;20557;-89
2022/08/07 00:59:06;;;;;;;6.50;4.50;;;;;;;21.56;100.00;99728.13;5018205;28;20019;-88
2022/08/07 01:01:32;;;;;;;5.45;4.47;;;;;;;21.63;100.00;99751.25;5019414;28;20093;-87
2022/08/07 01:03:58;;;;;;;4.43;3.92;;;;;;;21.72;100.00;99761.78;5020408;28;20043;-89
2022/08/07 01:06:25;;;;;;;4.63;4.28;;;;;;;21.81;100.00;99792.75;5019133;28;20022;-90
2022/08/07 01:08:51;;;;;;;4.40;3.92;;;;;;;21.88;100.00;99801.63;5032865;28;20026;-89
2022/08/07 01:11:17;;;;;;;4.53;4.10;;;;;;;21.95;100.00;99815.91;5020312;28;20026;-88
2022/08/07 01:13:43;;;;;;;4.93;4.30;;;;;;;22.00;100.00;99826.84;5025130;28;20064;-88
2022/08/07 01:16:09;;;;;;;7.75;4.90;;;;;;;21.94;100.00;99841.09;5020014;28;20038;-88
2022/08/07 01:18:35;;;;;;;5.07;4.60;;;;;;;21.77;100.00;99859.50;5018860;28;20094;-89
2022/08/07 01:21:15;;;;;;;5.85;4.45;;;;;;;21.69;100.00;99877.69;5018006;28;20033;-89
2022/08/07 01:23:43;;;;;;;7.10;4.57;;;;;;;21.72;100.00;99888.03;5021303;28;20101;-88
2022/08/07 01:26:12;;;;;;;;;;;;;;;21.77;100.00;99881.00;5019998;28;20038;-89
2022/08/07 01:28:43;;;;;;;4.57;4.18;;;;;;;21.88;100.00;99850.00;5018355;28;19917;-89
2022/08/07 01:31:09;;;;;;;5.20;4.70;;;;;;;21.96;100.00;99836.38;5028548;28;20029;-89
2022/08/07 01:33:35;;;;;;;5.13;3.88;;;;;;;21.99;100.00;99820.66;5024109;28;20027;-89
2022/08/07 01:36:03;;;;;;;4.30;3.97;;;;;;;22.02;100.00;99814.03;5017874;28;20022;-90
2022/08/07 01:38:31;;;;;;;5.22;4.20;;;;;;;22.05;100.00;99816.28;5014028;28;20221;-88
2022/08/07 01:41:05;;;;;;;4.05;3.75;;;;;;;22.08;100.00;99807.84;5015765;28;20037;-88
2022/08/07 01:43:32;;;;;;;4.22;3.85;;;;;;;22.13;100.00;99794.59;5028609;28;20065;-88
2022/08/07 01:45:58;;;;;;;6.88;3.80;;;;;;;22.21;100.00;99802.41;4987643;28;20133;-89
2022/08/07 01:48:25;;;;;;;3.75;3.40;;;;;;;22.26;100.00;99794.53;4997619;28;20034;-89
2022/08/07 01:51:19;;;;;;;4.18;3.83;;;;;;;22.27;100.00;99780.03;5005241;28;20025;-88
2022/08/07 01:53:48;;;;;;;5.68;4.15;;;;;;;22.26;100.00;99773.03;5000927;28;20042;-89
2022/08/07 01:56:21;;;;;;;3.85;3.55;;;;;;;22.24;100.00;99779.66;5001371;28;20048;-89
2022/08/07 01:59:02;;;;;;;4.53;3.78;;;;;;;22.24;100.00;99777.78;4981133;28;20037;-87
2022/08/07 02:01:35;;;;;;;3.88;3.58;;;;;;;22.23;100.00;99773.44;4998193;28;20034;-89
2022/08/07 02:04:14;;;;;;;4.13;3.75;;;;;;;22.22;100.00;99774.47;5001917;28;20038;-88
2022/08/07 02:06:45;;;;;;;5.03;3.90;;;;;;;22.20;100.00;99779.25;5002797;28;20045;-88
2022/08/07 02:09:16;;;;;;;4.60;4.03;;;;;;;22.19;100.00;99776.78;5000150;28;20038;-88
2022/08/07 02:11:44;;;;;;;4.32;3.60;;;;;;;22.16;100.00;99772.63;4986996;28;20038;-89
2022/08/07 02:14:13;;;;;;;4.82;4.20;;;;;;;22.16;100.00;99761.06;5000043;28;20034;-88
2022/08/07 02:16:41;;;;;;;3.92;3.65;;;;;;;22.10;100.00;99746.63;5002610;28;20431;-88
2022/08/07 02:19:10;;;;;;;5.00;3.70;;;;;;;22.11;100.00;99742.91;5000067;28;20373;-88
2022/08/07 02:21:40;;;;;;;4.90;4.40;;;;;;;22.13;100.00;99750.75;5002433;28;20370;-88
2022/08/07 02:24:08;;;;;;;3.95;3.75;;;;;;;22.13;100.00;99765.00;5000482;28;20033;-89
2022/08/07 02:26:36;;;;;;;7.00;4.32;;;;;;;22.08;100.00;99783.66;5001269;28;20033;-88
2022/08/07 02:29:07;;;;;;;4.55;4.10;;;;;;;22.11;100.00;99785.06;4998460;28;20045;-88
2022/08/07 02:31:34;;;;;;;4.53;4.22;;;;;;;22.06;100.00;99777.66;5002767;28;20030;-88
2022/08/07 02:34:02;;;;;;;6.70;4.30;;;;;;;21.99;100.00;99787.59;5002260;28;20040;-87
2022/08/07 02:36:29;;;;;;;6.93;4.60;;;;;;;21.96;100.00;99785.34;5001960;28;20037;-89
2022/08/07 02:38:57;;;;;;;5.00;4.60;;;;;;;21.90;100.00;99789.66;4999603;28;20387;-88
2022/08/07 02:41:27;;;;;;;3.97;3.67;;;;;;;21.87;100.00;99802.66;5002252;28;20401;-89
2022/08/07 02:43:57;;;;;;;5.47;4.20;;;;;;;21.83;100.00;99815.69;4999203;28;20030;-88
2022/08/07 02:46:25;;;;;;;5.15;4.35;;;;;;;21.79;100.00;99824.41;5002979;28;20041;-88
2022/08/07 02:48:51;;;;;;;4.70;4.38;;;;;;;21.58;100.00;99828.09;5003993;28;20078;-88
2022/08/07 02:51:20;;;;;;;5.15;4.63;;;;;;;21.43;100.00;99809.53;4996473;28;20093;-89
2022/08/07 02:53:53;;;;;;;5.18;4.68;;;;;;;21.27;100.00;99809.91;5000299;28;20125;-89
2022/08/07 02:56:21;;;;;;;4.88;4.47;;;;;;;21.26;100.00;99808.31;4997439;28;20434;-88
2022/08/07 02:58:52;;;;;;;4.82;4.50;;;;;;;21.16;100.00;99823.94;4996466;28;20440;-88
2022/08/07 03:01:21;;;;;;;15.05;5.53;;;;;;;21.12;100.00;99817.31;4993137;28;20053;-88
2022/08/07 03:03:48;;;;;;;5.03;4.50;;;;;;;21.13;100.00;99811.75;4990326;28;20152;-86
2022/08/07 03:06:19;;;;;;;;;;;;;;;21.19;100.00;99815.50;5000152;28;20067;-89
2022/08/07 03:08:45;;;;;;;5.00;4.50;;;;;;;21.21;100.00;99811.56;5006632;28;19917;-88
2022/08/07 03:11:13;;;;;;;4.32;3.92;;;;;;;21.18;100.00;99821.91;4998084;28;20422;-87
2022/08/07 03:13:42;;;;;;;5.00;4.45;;;;;;;21.03;100.00;99829.28;5002026;28;20689;-87
2022/08/07 03:16:13;;;;;;;5.20;4.57;;;;;;;21.00;100.00;99827.00;4993080;28;20053;-89
2022/08/07 03:18:39;;;;;;;6.05;5.38;;;;;;;21.04;100.00;99825.56;5009519;28;20030;-89
2022/08/07 03:21:06;;;;;;;4.60;4.30;;;;;;;21.10;100.00;99824.75;5012281;28;20045;-86
2022/08/07 03:23:33;;;;;;;5.35;4.90;;;;;;;21.17;100.00;99831.81;5013714;28;20376;-89
2022/08/07 03:26:02;;;;;;;6.65;4.88;;;;;;;21.22;100.00;99828.50;5012078;28;20038;-89
2022/08/07 03:28:34;;;;;;;5.32;4.80;;;;;;;21.18;100.00;99832.63;5013890;28;20026;-88
2022/08/07 03:31:17;;;;;;;5.53;5.13;;;;;;;21.11;100.00;99829.09;5012399;28;20037;-88
2022/08/07 03:33:47;;;;;;;6.90;5.22;;;;;;;21.12;100.00;99828.06;5012083;28;20046;-87
2022/08/07 03:36:15;;;;;;;5.95;5.45;;;;;;;21.18;100.00;99824.59;5010772;28;20034;-87
2022/08/07 03:38:42;;;;;;;6.40;5.57;;;;;;;21.24;100.00;99816.53;5013200;28;20048;-89
2022/08/07 03:41:09;;;;;;;5.90;5.18;;;;;;;21.17;100.00;99820.25;5010091;28;20019;-86
2022/08/07 03:43:37;;;;;;;6.65;5.35;;;;;;;21.06;100.00;99820.81;5010742;28;20050;-87
2022/08/07 03:46:05;;;;;;;6.22;5.63;;;;;;;21.02;100.00;99824.94;5013928;28;20065;-89
2022/08/07 03:48:33;;;;;;;5.10;4.70;;;;;;;20.92;100.00;99811.91;5012172;28;20053;-88
2022/08/07 03:51:01;;;;;;;5.88;5.35;;;;;;;20.92;100.00;99816.44;5025897;28;20058;-89
2022/08/07 03:53:36;;;;;;;6.18;5.43;;;;;;;20.97;100.00;99819.38;4990991;28;20038;-87
2022/08/07 03:56:01;;;;;;;5.63;5.22;;;;;;;20.96;100.00;99812.34;5008575;28;20056;-89
2022/08/07 03:58:28;;;;;;;6.05;5.30;;;;;;;21.00;100.00;99813.59;5011669;28;20054;-88
2022/08/07 04:00:59;;;;;;;5.90;5.30;;;;;;;21.06;100.00;99807.41;5011874;28;20125;-86
2022/08/07 04:03:26;;;;;;;7.50;5.40;;;;;;;21.06;100.00;99804.72;5011949;28;20559;-88
2022/08/07 04:05:51;;;;;;;6.22;4.95;;;;;;;21.06;100.00;99802.03;5009674;28;20034;-88
2022/08/07 04:08:22;;;;;;;5.88;5.38;;;;;;;21.13;100.00;99802.88;5009372;28;20034;-89
2022/08/07 04:10:51;;;;;;;5.57;5.10;;;;;;;21.19;100.00;99794.03;5009495;28;20041;-89
2022/08/07 04:13:24;;;;;;;5.28;4.75;;;;;;;21.17;100.00;99780.00;5002698;28;20402;-88
2022/08/07 04:15:53;;;;;;;8.10;5.50;;;;;;;21.20;100.00;99793.00;4978348;28;20058;-88
2022/08/07 04:18:20;;;;;;;6.43;5.30;;;;;;;21.18;100.00;99792.38;5009419;28;20425;-89
2022/08/07 04:20:46;;;;;;;8.38;5.68;;;;;;;21.12;100.00;99795.84;5013859;28;20038;-87
2022/08/07 04:23:14;;;;;;;6.45;4.88;;;;;;;21.10;100.00;99792.53;5008327;28;20402;-88
2022/08/07 04:25:41;;;;;;;5.50;4.97;;;;;;;21.10;100.00;99795.22;5009020;28;20026;-88
2022/08/07 04:28:11;;;;;;;5.30;4.88;;;;;;;21.05;100.00;99786.97;5011629;28;20033;-88
2022/08/07 04:30:37;;;;;;;6.15;5.55;;;;;;;20.99;100.00;99790.47;5005192;28;20387;-88
2022/08/07 04:33:13;;;;;;;8.48;5.13;;;;;;;20.94;100.00;99796.44;5008705;28;20034;-88
2022/08/07 04:35:43;;;;;;;5.97;5.30;;;;;;;20.94;100.00;99798.31;5008936;28;20038;-88
2022/08/07 04:38:13;;;;;;;6.13;5.57;;;;;;;20.93;100.00;99802.00;5011234;28;20037;-87
2022/08/07 04:40:44;;;;;;;5.80;5.18;;;;;;;20.96;100.00;99801.63;5009123;28;20053;-87
2022/08/07 04:43:16;;;;;;;7.72;4.70;;;;;;;21.01;100.00;99801.81;5007306;28;20053;-88
2022/08/07 04:46:03;;;;;;;5.40;4.85;;;;;;;21.08;100.00;99802.66;4999888;28;20430;-90
2022/08/07 04:48:35;;;;;;;6.00;4.88;;;;;;;21.13;100.00;99798.34;5004469;28;20056;-90
2022/08/07 04:51:11;;;;;;;6.30;4.95;;;;;;;21.18;100.00;99800.44;5002611;28;20090;-88
2022/08/07 04:53:45;;;;;;;5.20;4.70;;;;;;;21.16;100.00;99795.25;5012980;28;20029;-89
2022/08/07 04:56:30;;;;;;;5.10;4.70;;;;;;;21.15;100.00;99800.81;5005828;28;20037;-90
2022/08/07 04:59:17;;;;;;;5.60;4.72;;;;;;;21.12;100.00;99809.28;5011597;28;20394;-89
2022/08/07 05:02:19;;;;;;;6.25;5.53;;;;;;;21.12;100.00;99801.22;5001276;28;20121;-88
2022/08/07 05:05:09;;;;;;;5.70;5.20;;;;;;;21.13;100.00;99808.25;4959707;28;20094;-88
2022/08/07 05:07:57;;;;;;;5.30;4.80;;;;;;;21.20;100.00;99814.47;4985003;28;20041;-89
2022/08/07 05:10:27;;;;;;;6.85;5.38;;;;;;;;;;5002299;28;20394;-88
2022/08/07 05:13:08;;;;;;;5.60;5.10;;;;;;;21.28;100.00;99811.59;5017038;28;20062;-88
2022/08/07 05:15:41;;;;;;;6.47;5.32;;;;;;;21.24;100.00;99816.53;5024826;28;20018;-88
2022/08/07 05:18:15;;;;;;;5.53;5.07;;;;;;;21.27;100.00;99817.97;5027417;28;20090;-89
2022/08/07 05:20:45;;;;;;;5.18;4.68;;;;;;;21.30;100.00;99812.22;5018620;28;20030;-89
2022/08/07 05:23:38;;;;;;;5.35;4.85;;;;;;;21.19;100.00;99818.19;5028688;28;20033;-87
2022/08/07 05:26:09;;;;;;;5.55;5.05;;;;;;;21.19;100.00;99815.50;5008389;28;20061;-89
2022/08/07 05:28:37;;;;;;;5.70;5.20;;;;;;;21.20;100.00;99822.53;5024681;28;20034;-89
2022/08/07 05:31:04;;;;;;;5.10;4.60;;;;;;;21.20;100.00;99827.91;5023175;28;20091;-90
2022/08/07 05:33:35;;;;;;;5.80;5.20;;;;;;;21.23;100.00;99832.84;5027003;28;20046;-88
2022/08/07 05:36:03;;;;;;;5.00;4.70;;;;;;;21.20;100.00;99831.41;5022756;28;20089;-88
2022/08/07 05:38:30;;;;;;;6.75;4.95;;;;;;;21.21;100.00;99832.22;5024937;28;20022;-89
2022/08/07 05:40:56;;;;;;;6.13;5.70;;;;;;;21.23;100.00;99824.78;5029843;28;20081;-88
2022/08/07 05:43:23;;;;;;;6.82;5.78;;;;;;;21.23;100.00;99832.84;5020384;28;20122;-88
2022/08/07 05:45:50;;;;;;;6.35;5.55;;;;;;;21.16;100.00;99829.31;5003780;28;20042;-89
2022/08/07 05:48:19;;;;;;;7.00;5.88;;;;;;;21.08;100.00;99827.66;5003374;28;20054;-87
2022/08/07 05:50:46;;;;;;;7.13;5.15;;;;;;;21.07;100.00;99815.25;5011223;28;20038;-87
2022/08/07 05:53:15;;;;;;;7.68;5.35;;;;;;;21.09;100.00;99817.72;5015922;28;20061;-88
2022/08/07 05:55:46;;;;;;;6.00;5.50;;;;;;;21.09;100.00;99817.72;5013762;28;20474;-89
2022/08/07 05:58:16;;;;;;;8.20;5.70;;;;;;;21.06;100.00;99818.13;4999752;28;20493;-88
2022/08/07 06:00:45;;;;;;;6.40;5.80;;;;;;;20.97;100.00;99819.38;4996554;28;20054;-88
2022/08/07 06:03:13;;;;;;;6.53;5.80;;;;;;;20.90;100.00;99818.53;5000415;28;20034;-88
2022/08/07 06:05:40;;;;;;;6.65;6.07;;;;;;;20.90;100.00;99813.16;4980316;28;20033;-90
2022/08/07 06:08:08;;;;;;;6.60;5.33;;;;;;;20.89;100.00;99806.97;4999894;28;20042;-88
2022/08/07 06:10:37;;;;;;;9.75;5.72;;;;;;;20.90;100.00;99810.47;5017818;28;20280;-86
2022/08/07 06:13:07;;;;;;;6.65;6.07;;;;;;;20.94;100.00;99809.03;5000839;28;20034;-89
2022/08/07 06:15:39;;;;;;;6.32;5.82;;;;;;;20.99;100.00;99812.75;5001985;28;20038;-90
2022/08/07 06:18:06;;;;;;;6.55;5.95;;;;;;;21.08;100.00;99810.72;4999524;28;20129;-90
2022/08/07 06:20:36;;;;;;;6.45;5.85;;;;;;;21.15;100.00;99811.56;5001717;28;20399;-90
2022/08/07 06:23:06;;;;;;;6.05;5.57;;;;;;;21.17;100.00;99814.88;4967282;28;20053;-89
2022/08/07 06:25:42;;;;;;;6.05;5.55;;;;;;;21.22;100.00;99817.78;4965440;28;20049;-87
2022/08/07 06:28:10;;;;;;;6.60;5.90;;;;;;;21.30;100.00;99822.94;4963700;28;20537;-89
2022/08/07 06:30:39;;;;;;;5.90;5.45;;;;;;;21.40;100.00;99818.00;4954189;28;20502;-88
2022/08/07 06:33:11;;;;;;;7.50;6.07;;;;;;;21.54;100.00;99814.28;4967216;28;21162;-88
2022/08/07 06:35:39;;;;;;;6.70;5.60;;;;;;;21.64;100.00;99812.00;4965909;28;20402;-89
2022/08/07 06:38:05;;;;;;;7.28;5.90;;;;;;;21.64;100.00;99812.00;4965971;28;20037;-88
2022/08/07 06:40:59;;;;;;;6.68;6.00;;;;;;;21.65;100.00;99802.91;4962387;28;20035;-90
2022/08/07 06:43:27;;;;;;;7.88;6.82;;;;;;;21.67;100.00;99809.94;4960222;28;20046;-89
2022/08/07 06:46:03;;;;;;;7.22;6.43;;;;;;;21.72;100.00;99815.50;4964586;28;20034;-89
2022/08/07 06:48:33;;;;;;;7.10;6.50;;;;;;;21.81;100.00;99812.38;4966457;28;20034;-88
2022/08/07 06:51:06;;;;;;;7.40;6.70;;;;;;;21.80;100.00;99807.22;4967122;28;20039;-88
2022/08/07 06:53:37;;;;;;;6.82;6.22;;;;;;;21.85;100.00;99812.81;4961406;28;20482;-87
2022/08/07 06:56:05;;;;;;;9.30;5.63;;;;;;;21.95;100.00;99815.91;4968383;28;20181;-90
2022/08/07 06:58:35;;;;;;;6.20;5.60;;;;;;;22.08;100.00;99813.22;4964858;28;20045;-87
2022/08/07 07:01:08;;;;;;;5.53;5.13;;;;;;;22.21;100.00;99813.16;4966694;28;20041;-88
2022/08/07 07:03:36;;;;;;;5.43;4.95;;;;;;;22.32;100.00;99809.81;4967545;28;20039;-88
2022/08/07 07:06:02;;;;;;;6.32;4.75;;;;;;;22.45;100.00;99812.44;4965955;28;20043;-88
2022/08/07 07:08:29;;;;;;;4.75;4.40;;;;;;;22.60;100.00;99819.41;4982091;28;20034;-86
2022/08/07 07:10:55;;;;;;;7.60;5.22;;;;;;;22.76;100.00;99810.88;4966442;28;20467;-87
2022/08/07 07:13:28;;;;;;;5.07;4.63;;;;;;;22.82;100.00;99808.16;4983312;28;20054;-88
2022/08/07 07:15:59;;;;;;;6.38;5.82;;;;;;;22.83;100.00;99812.50;4983215;28;20528;-86
2022/08/07 07:18:30;;;;;;;5.57;4.85;;;;;;;22.94;100.00;99802.91;4981804;28;20474;-86
2022/08/07 07:21:02;;;;;;;7.50;4.72;;;;;;;23.06;100.00;99801.19;4989766;28;20050;-87
2022/08/07 07:23:32;;;;;;;5.35;4.55;;;;;;;23.12;100.00;99811.06;4998516;28;20486;-88
2022/08/07 07:26:04;;;;;;;6.10;4.45;;;;;;;23.14;100.00;99802.78;5003433;28;20092;-88
2022/08/07 07:28:54;;;;;;;6.00;4.65;;;;;;;23.15;100.00;99807.94;5003180;28;20046;-88
2022/08/07 07:31:30;;;;;;;5.32;4.07;;;;;;;23.26;100.00;99801.88;4995834;28;20554;-87
2022/08/07 07:34:00;;;;;;;5.57;5.03;;;;;;;23.26;100.00;99807.25;5001182;28;20038;-87
2022/08/07 07:36:27;;;;;;;5.55;4.93;;;;;;;23.25;100.00;99794.84;4999308;28;20816;-88
2022/08/07 07:38:53;;;;;;;5.32;4.85;;;;;;;23.26;100.00;99795.66;5003212;28;20030;-88
2022/08/07 07:41:21;;;;;;;5.53;5.03;;;;;;;23.33;100.00;99798.31;4997928;28;20032;-87
2022/08/07 07:43:50;;;;;;;4.82;4.50;;;;;;;23.46;100.00;99796.34;4997862;28;20060;-88
2022/08/07 07:46:16;;;;;;;4.97;4.47;;;;;;;23.56;100.00;99791.25;4996849;28;20026;-89
2022/08/07 07:48:44;;;;;;;4.80;4.22;;;;;;;23.63;100.00;99801.97;5002181;28;20034;-88
2022/08/07 07:51:12;;;;;;;4.40;4.00;;;;;;;23.67;100.00;99795.13;5007023;28;20030;-87
2022/08/07 07:53:41;;;;;;;4.93;4.53;;;;;;;23.75;100.00;99794.81;5005115;28;20064;-88
2022/08/07 07:56:09;;;;;;;5.57;4.82;;;;;;;23.85;100.00;99791.63;5006527;28;20140;-87
2022/08/07 07:58:37;;;;;;;4.55;4.15;;;;;;;23.98;100.00;99795.00;4998658;28;20038;-85
2022/08/07 08:01:04;;;;;;;5.57;4.03;;;;;;;24.05;100.00;99798.44;5006407;28;20437;-87
2022/08/07 08:03:32;;;;;;;4.10;3.80;;;;;;;24.05;100.00;99800.31;5004860;28;20046;-76
2022/08/07 08:05:59;;;;;;;3.88;3.58;;;;;;;24.04;100.00;99802.19;5003012;28;20576;-79
2022/08/07 08:08:28;;;;;;;4.13;3.72;;;;;;;24.03;100.00;99797.03;5003066;28;20030;-75
2022/08/07 08:10:55;;;;;;;583.42;50.80;;;;;;;-144.47;100.00;61586.06;5007171;28;20383;-70
2022/08/07 08:13:23;;;;;;;15.10;5.18;;;;;;;-144.47;100.00;61586.06;4999779;28;20131;-72
2022/08/07 08:15:50;;;;;;;4.93;4.47;;;;;;;-144.47;100.00;61586.06;5002954;28;20061;-72
2022/08/07 08:18:16;;;;;;;3.95;3.55;;;;;;;21.91;100.00;61586.06;5003076;28;20033;-79
2022/08/07 08:20:43;;;;;;;4.22;3.83;;;;;;;-144.47;100.00;61586.06;5002898;28;20444;-79
2022/08/07 08:27:03;;;;;;;5.88;3.97;;;;;;;-144.47;100.00;61586.06;4967571;28;20399;-78
2022/08/07 08:28:53;;;;;;;3.85;3.47;;;;;;;-144.47;100.00;61586.06;4978374;28;20966;-78
2022/08/07 08:31:32;;;;;;;4.63;3.60;;;;;;;24.18;100.00;61586.06;4984344;28;20483;-78
2022/08/07 08:34:00;;;;;;;3.55;3.25;;;;;;;-144.47;100.00;61586.06;4981143;28;20391;-79
2022/08/07 08:36:30;;;;;;;3.42;3.13;;;;;;;-144.47;100.00;61586.06;4986134;28;20031;-78
2022/08/07 08:39:00;;;;;;;4.13;3.72;;;;;;;-144.47;100.00;61586.06;4966615;28;20453;-78
2022/08/07 08:41:37;;;;;;;3.70;3.40;;;;;;;-144.47;100.00;61586.06;4989104;28;20105;-79
2022/08/07 08:44:11;;;;;;;4.05;3.15;;;;;;;-144.47;100.00;61586.06;4982503;28;20372;-77
2022/08/07 08:47:00;;;;;;;4.57;3.83;;;;;;;-144.47;100.00;61586.06;4981771;28;20389;-79
2022/08/07 08:49:44;;;;;;;3.90;3.60;;;;;;;-144.47;100.00;61586.06;4979157;28;20031;-77
2022/08/07 08:52:27;;;;;;;3.65;3.35;;;;;;;-144.47;100.00;61586.06;4987297;28;20046;-77
2022/08/07 08:55:08;;;;;;;4.07;3.72;;;;;;;-144.47;100.00;61586.06;4981149;28;20042;-79
2022/08/07 08:57:34;;;;;;;4.95;3.42;;;;;;;-144.47;100.00;61586.06;4986062;28;20050;-78
2022/08/07 09:00:10;;;;;;;4.00;3.08;;;;;;;-144.47;100.00;61586.06;4984124;28;20030;-78
2022/08/07 09:02:50;;;;;;;3.70;3.28;;;;;;;-144.47;100.00;61586.06;4981506;28;20485;-81
2022/08/07 09:05:52;;;;;;;3.22;2.92;;;;;;;-144.47;100.00;61586.06;4985852;28;20031;-79
2022/08/07 09:08:42;;;;;;;3.50;3.20;;;;;;;-144.47;100.00;61586.06;4962839;28;20038;-79
2022/08/07 09:11:18;;;;;;;3.78;3.47;;;;;;;-144.47;100.00;61586.06;4984290;28;20097;-77
2022/08/07 09:13:52;;;;;;;3.78;3.28;;;;;;;-144.47;100.00;61586.06;4982501;28;20046;-77
2022/08/07 09:16:21;;;;;;;3.40;3.10;;;;;;;-144.47;100.00;61586.06;4984006;28;20402;-79
2022/08/07 09:19:05;;;;;;;3.38;3.17;;;;;;;-144.47;100.00;61586.06;4984296;28;20038;-79
2022/08/07 09:22:03;;;;;;;3.60;3.30;;;;;;;-144.47;100.00;61586.06;4993280;28;20395;-79
2022/08/07 09:24:38;;;;;;;3.40;3.10;;;;;;;-144.47;100.00;61586.06;4954411;28;20446;-78
2022/08/07 09:27:27;;;;;;;3.35;2.80;;;;;;;-144.47;100.00;61586.06;5003877;28;20040;-79
2022/08/07 09:30:06;;;;;;;3.53;3.20;;;;;;;-144.47;100.00;61586.06;4994004;28;20386;-79
2022/08/07 09:32:34;;;;;;;3.20;3.00;;;;;;;-144.47;100.00;61586.06;5003176;28;20065;-79
2022/08/07 09:35:17;;;;;;;3.22;3.03;;;;;;;-144.47;100.00;61586.06;4999454;28;20084;-79
2022/08/07 09:38:12;;;;;;;3.25;3.05;;;;;;;-144.47;100.00;61586.06;5002634;28;20030;-79
2022/08/07 09:40:41;;;;;;;5.10;3.10;;;;;;;-144.47;100.00;61586.06;5002540;28;20141;-79
2022/08/07 09:43:22;;;;;;;3.72;2.70;;;;;;;-144.47;100.00;61586.06;5001306;28;20042;-77
2022/08/07 09:46:01;;;;;;;3.42;3.20;;;;;;;-144.47;100.00;61586.06;4998440;28;20398;-78
2022/08/07 09:49:08;;;;;;;4.78;4.38;;;;;;;-144.47;100.00;61586.06;4997530;28;20386;-79
2022/08/07 09:51:58;;;;;;;2.90;2.70;;;;;;;42.00;100.00;61586.06;5001643;28;20382;-79
2022/08/07 09:54:42;;;;;;;3.35;3.10;;;;;;;62.74;100.00;61586.06;4996148;28;20030;-79
2022/08/07 09:57:23;;;;;;;3.53;2.92;;;;;;;62.74;100.00;61586.06;5001766;28;20033;-79
2022/08/07 10:00:12;;;;;;;4.30;3.20;;;;;;;42.00;100.00;61586.06;5002125;28;20168;-78
2022/08/07 10:02:47;;;;;;;3.38;3.08;;;;;;;104.25;100.00;61586.06;5000445;28;20061;-79
2022/08/07 10:05:49;;;;;;;3.00;2.80;;;;;;;62.74;100.00;61586.06;5001781;28;20359;-79
2022/08/07 10:08:36;;;;;;;3.40;3.10;;;;;;;62.74;100.00;61586.06;5002171;28;20022;-79
2022/08/07 10:11:13;;;;;;;3.47;3.17;;;;;;;42.00;100.00;61586.06;4999335;28;20487;-80
2022/08/07 10:14:05;;;;;;;3.83;2.72;;;;;;;42.00;100.00;61586.06;5001529;28;20081;-79
2022/08/07 10:16:59;;;;;;;2.90;2.70;;;;;;;42.00;100.00;61586.06;4999897;28;20033;-77
2022/08/07 10:19:43;;;;;;;2.55;2.40;;;;;;;62.74;100.00;61586.06;5003086;28;20132;-78
2022/08/07 10:22:21;;;;;;;2.53;2.33;;;;;;;62.74;100.00;61586.06;4998874;28;20403;-80
2022/08/07 10:24:50;;;;;;;2.53;2.42;;;;;;;42.00;100.00;61586.06;5001788;28;20161;-78
2022/08/07 10:27:24;;;;;;;4.30;2.47;;;;;;;42.00;100.00;61586.06;5001860;28;20034;-79
2022/08/07 10:30:16;;;;;;;2.20;2.10;;;;;;;42.00;100.00;61586.06;5000985;28;20169;-78
2022/08/07 10:32:55;;;;;;;3.00;2.38;;;;;;;62.74;100.00;61586.06;5000898;28;20041;-78
2022/08/07 10:35:42;;;;;;;2.95;2.40;;;;;;;42.00;100.00;61586.06;4994295;28;20382;-79
2022/08/07 10:38:23;;;;;;;2.60;2.45;;;;;;;42.00;100.00;61586.06;5001771;28;20034;-80
2022/08/07 10:41:08;;;;;;;2.47;2.38;;;;;;;42.00;100.00;61586.06;4996340;28;20056;-78
2022/08/07 10:44:00;;;;;;;2.60;2.40;;;;;;;-144.47;100.00;61586.06;4999781;28;20034;-79
2022/08/07 10:46:31;;;;;;;2.15;2.05;;;;;;;-144.47;100.00;61586.06;4996137;28;20042;-79
2022/08/07 10:49:13;;;;;;;2.50;2.30;;;;;;;-144.47;100.00;61586.06;4999845;28;20064;-79
2022/08/07 10:51:56;;;;;;;2.63;2.35;;;;;;;-144.47;100.00;61586.06;5002076;28;20452;-78
2022/08/07 10:54:51;;;;;;;2.60;2.50;;;;;;;-144.47;100.00;61586.06;4994949;28;20386;-80
2022/08/07 10:57:37;;;;;;;2.83;2.63;;;;;;;-144.47;100.00;61586.06;5003336;28;20039;-79
2022/08/07 11:00:09;;;;;;;2.95;2.83;;;;;;;-144.47;100.00;61586.06;5002752;28;20037;-78
2022/08/07 11:02:57;;;;;;;2.78;2.58;;;;;;;-144.47;100.00;61586.06;4998413;28;20045;-79
2022/08/07 11:05:51;;;;;;;3.10;2.90;;;;;;;-144.47;100.00;61586.06;4997627;28;20030;-79
2022/08/07 11:08:51;;;;;;;3.10;2.90;;;;;;;-144.47;100.00;61586.06;5002625;28;20033;-80
2022/08/07 11:11:24;;;;;;;3.28;3.08;;;;;;;-144.47;100.00;61586.06;4999804;28;20034;-79
2022/08/07 11:14:19;;;;;;;3.05;2.85;;;;;;;-144.47;100.00;61586.06;4998999;28;20438;-79
2022/08/07 11:16:52;;;;;;;3.00;2.80;;;;;;;27.04;100.00;61586.06;5001777;28;20459;-79
2022/08/07 11:19:23;;;;;;;3.08;2.88;;;;;;;-144.47;100.00;61586.06;4996021;28;20085;-79
2022/08/07 11:22:05;;;;;;;3.17;2.97;;;;;;;27.09;100.00;61586.06;4996756;28;20055;-77
2022/08/07 11:24:39;;;;;;;2.88;2.65;;;;;;;-144.47;100.00;61586.06;5004398;28;20109;-77
2022/08/07 11:27:39;;;;;;;3.00;2.80;;;;;;;-144.47;100.00;61586.06;5002439;28;20045;-78
2022/08/07 11:30:09;;;;;;;3.67;3.38;;;;;;;-144.47;100.00;61586.06;5006412;28;20429;-78
2022/08/07 11:32:53;;;;;;;2.80;2.60;;;;;;;-144.47;100.00;61586.06;5004905;28;20125;-79
2022/08/07 11:35:24;;;;;;;3.08;2.88;;;;;;;-144.47;100.00;61586.06;5003253;28;20397;-77
2022/08/07 11:38:12;;;;;;;3.22;3.03;;;;;;;-144.47;100.00;61586.06;5004932;28;20435;-79
2022/08/07 11:40:42;;;;;;;3.38;3.03;;;;;;;-144.47;100.00;61586.06;4999725;28;20120;-79
2022/08/07 11:43:24;;;;;;;3.35;3.15;;;;;;;-144.47;100.00;61586.06;5002787;28;20037;-77
2022/08/07 11:46:29;;;;;;;4.03;3.72;;;;;;;-144.47;100.00;61586.06;4999094;28;20080;-78
2022/08/07 11:48:58;;;;;;;3.47;3.20;;;;;;;-144.47;100.00;61586.06;5005716;28;20477;-78
2022/08/07 11:51:53;;;;;;;2.83;2.72;;;;;;;-144.47;100.00;61586.06;5000955;28;20121;-78